sensor_id;sensor_type;location;lat;lon;timestamp;temperature;humidity
23120;DHT22;11729;50.836;4.330;2022-10-26T00:00:47;16.10;99.90
23120;DHT22;11729;50.836;4.330;2022-10-26T00:03:14;16.10;99.90
23120;DHT22;11729;50.836;4.330;2022-10-26T00:05:39;16.20;99.90
23120;DHT22;11729;50.836;4.330;2022-10-26T00:08:06;16.20;99.90
23120;DHT22;11729;50.836;4.330;2022-10-26T00:10:36;16.30;99.90
23120;DHT22;11729;50.836;4.330;2022-10-26T00:13:03;16.40;99.90
23120;DHT22;11729;50.836;4.330;2022-10-26T00:15:30;16.40;99.90
23120;DHT22;11729;50.836;4.330;2022-10-26T00:17:55;16.30;99.90
23120;DHT22;11729;50.836;4.330;2022-10-26T00:20:21;16.20;99.90
23120;DHT22;11729;50.836;4.330;2022-10-26T00:22:47;16.20;99.90
23120;DHT22;11729;50.836;4.330;2022-10-26T00:25:13;16.20;99.90
23120;DHT22;11729;50.836;4.330;2022-10-26T00:27:39;16.30;99.90
23120;DHT22;11729;50.836;4.330;2022-10-26T00:30:05;16.30;99.90
23120;DHT22;11729;50.836;4.330;2022-10-26T00:32:31;16.30;99.90
23120;DHT22;11729;50.836;4.330;2022-10-26T00:34:57;16.40;99.90
23120;DHT22;11729;50.836;4.330;2022-10-26T00:37:23;16.30;99.90
23120;DHT22;11729;50.836;4.330;2022-10-26T00:39:48;16.40;99.90
23120;DHT22;11729;50.836;4.330;2022-10-26T00:42:18;16.40;99.90
23120;DHT22;11729;50.836;4.330;2022-10-26T00:49:55;16.40;99.90
23120;DHT22;11729;50.836;4.330;2022-10-26T00:52:22;16.40;99.90
23120;DHT22;11729;50.836;4.330;2022-10-26T00:54:49;16.50;99.90
23120;DHT22;11729;50.836;4.330;2022-10-26T00:57:15;16.50;99.90
23120;DHT22;11729;50.836;4.330;2022-10-26T00:59:43;16.40;99.90
23120;DHT22;11729;50.836;4.330;2022-10-26T01:02:10;16.40;99.90
23120;DHT22;11729;50.836;4.330;2022-10-26T01:04:36;16.40;99.90
23120;DHT22;11729;50.836;4.330;2022-10-26T01:07:03;16.30;99.90
23120;DHT22;11729;50.836;4.330;2022-10-26T01:09:29;16.30;99.90
23120;DHT22;11729;50.836;4.330;2022-10-26T01:11:55;16.30;99.90
23120;DHT22;11729;50.836;4.330;2022-10-26T01:14:21;16.40;99.90
23120;DHT22;11729;50.836;4.330;2022-10-26T01:22:32;16.30;99.90
23120;DHT22;11729;50.836;4.330;2022-10-26T01:25:02;16.50;99.90
23120;DHT22;11729;50.836;4.330;2022-10-26T01:27:42;16.50;99.90
23120;DHT22;11729;50.836;4.330;2022-10-26T01:38:12;16.50;99.90
23120;DHT22;11729;50.836;4.330;2022-10-26T01:40:46;16.60;99.90
23120;DHT22;11729;50.836;4.330;2022-10-26T01:43:16;16.50;99.90
23120;DHT22;11729;50.836;4.330;2022-10-26T01:45:42;16.50;99.90
23120;DHT22;11729;50.836;4.330;2022-10-26T01:48:13;16.60;99.90
23120;DHT22;11729;50.836;4.330;2022-10-26T01:50:43;16.50;99.90
23120;DHT22;11729;50.836;4.330;2022-10-26T01:53:14;16.50;99.90
23120;DHT22;11729;50.836;4.330;2022-10-26T02:01:37;16.80;99.90
23120;DHT22;11729;50.836;4.330;2022-10-26T02:04:38;16.80;99.90
23120;DHT22;11729;50.836;4.330;2022-10-26T02:07:17;16.90;99.90
23120;DHT22;11729;50.836;4.330;2022-10-26T02:10:23;17.10;99.90
23120;DHT22;11729;50.836;4.330;2022-10-26T02:13:08;17.20;99.90
23120;DHT22;11729;50.836;4.330;2022-10-26T02:20:34;17.10;99.90
23120;DHT22;11729;50.836;4.330;2022-10-26T02:23:03;17.10;99.90
23120;DHT22;11729;50.836;4.330;2022-10-26T02:25:32;17.20;99.90
23120;DHT22;11729;50.836;4.330;2022-10-26T02:28:05;17.20;99.90
23120;DHT22;11729;50.836;4.330;2022-10-26T02:30:32;17.30;99.90
23120;DHT22;11729;50.836;4.330;2022-10-26T02:32:59;17.20;99.90
23120;DHT22;11729;50.836;4.330;2022-10-26T02:35:32;17.20;99.90
23120;DHT22;11729;50.836;4.330;2022-10-26T02:38:03;17.30;99.90
23120;DHT22;11729;50.836;4.330;2022-10-26T02:40:31;17.40;99.90
23120;DHT22;11729;50.836;4.330;2022-10-26T02:43:01;17.50;99.90
23120;DHT22;11729;50.836;4.330;2022-10-26T02:45:33;17.50;99.90
23120;DHT22;11729;50.836;4.330;2022-10-26T02:48:01;17.50;99.90
23120;DHT22;11729;50.836;4.330;2022-10-26T02:50:32;17.40;99.90
23120;DHT22;11729;50.836;4.330;2022-10-26T02:53:15;17.40;99.90
23120;DHT22;11729;50.836;4.330;2022-10-26T02:55:47;17.50;99.90
23120;DHT22;11729;50.836;4.330;2022-10-26T02:58:26;17.40;99.90
23120;DHT22;11729;50.836;4.330;2022-10-26T03:00:53;17.40;99.90
23120;DHT22;11729;50.836;4.330;2022-10-26T03:03:19;17.40;99.90
23120;DHT22;11729;50.836;4.330;2022-10-26T03:05:46;17.50;99.90
23120;DHT22;11729;50.836;4.330;2022-10-26T03:08:12;17.40;99.90
23120;DHT22;11729;50.836;4.330;2022-10-26T03:10:43;17.50;99.90
23120;DHT22;11729;50.836;4.330;2022-10-26T03:13:10;17.50;99.90
23120;DHT22;11729;50.836;4.330;2022-10-26T03:15:36;17.50;99.90
23120;DHT22;11729;50.836;4.330;2022-10-26T03:18:03;17.50;99.90
23120;DHT22;11729;50.836;4.330;2022-10-26T03:20:29;17.50;99.90
23120;DHT22;11729;50.836;4.330;2022-10-26T03:22:54;17.50;99.90
23120;DHT22;11729;50.836;4.330;2022-10-26T03:25:22;17.60;99.90
23120;DHT22;11729;50.836;4.330;2022-10-26T03:27:59;17.50;99.90
23120;DHT22;11729;50.836;4.330;2022-10-26T03:30:25;17.50;99.90
23120;DHT22;11729;50.836;4.330;2022-10-26T03:32:51;17.40;99.90
23120;DHT22;11729;50.836;4.330;2022-10-26T03:35:17;17.40;99.90
23120;DHT22;11729;50.836;4.330;2022-10-26T03:37:44;17.40;99.90
23120;DHT22;11729;50.836;4.330;2022-10-26T03:40:10;17.40;99.90
23120;DHT22;11729;50.836;4.330;2022-10-26T03:42:36;17.40;99.90
23120;DHT22;11729;50.836;4.330;2022-10-26T03:45:03;17.40;99.90
23120;DHT22;11729;50.836;4.330;2022-10-26T03:47:29;17.40;99.90
23120;DHT22;11729;50.836;4.330;2022-10-26T03:49:54;17.40;99.90
23120;DHT22;11729;50.836;4.330;2022-10-26T03:52:20;17.40;99.90
23120;DHT22;11729;50.836;4.330;2022-10-26T03:54:46;17.40;99.90
23120;DHT22;11729;50.836;4.330;2022-10-26T03:57:11;17.40;99.90
23120;DHT22;11729;50.836;4.330;2022-10-26T03:59:37;17.30;99.90
23120;DHT22;11729;50.836;4.330;2022-10-26T04:02:02;17.10;99.90
23120;DHT22;11729;50.836;4.330;2022-10-26T04:04:28;17.10;99.90
23120;DHT22;11729;50.836;4.330;2022-10-26T04:06:53;17.00;99.90
23120;DHT22;11729;50.836;4.330;2022-10-26T04:09:19;16.90;99.90
23120;DHT22;11729;50.836;4.330;2022-10-26T04:11:44;16.90;99.90
23120;DHT22;11729;50.836;4.330;2022-10-26T04:14:10;16.80;99.90
23120;DHT22;11729;50.836;4.330;2022-10-26T04:16:36;16.80;99.90
23120;DHT22;11729;50.836;4.330;2022-10-26T04:19:01;16.70;99.90
23120;DHT22;11729;50.836;4.330;2022-10-26T04:21:28;16.70;99.90
23120;DHT22;11729;50.836;4.330;2022-10-26T04:23:53;16.80;99.90
23120;DHT22;11729;50.836;4.330;2022-10-26T04:26:19;16.90;99.90
23120;DHT22;11729;50.836;4.330;2022-10-26T04:28:45;16.80;99.90
23120;DHT22;11729;50.836;4.330;2022-10-26T04:31:10;16.80;99.90
23120;DHT22;11729;50.836;4.330;2022-10-26T04:33:36;16.90;99.90
23120;DHT22;11729;50.836;4.330;2022-10-26T04:36:02;16.90;99.90
23120;DHT22;11729;50.836;4.330;2022-10-26T04:38:27;16.90;99.90
23120;DHT22;11729;50.836;4.330;2022-10-26T04:40:54;16.80;99.90
23120;DHT22;11729;50.836;4.330;2022-10-26T04:43:19;16.80;99.90
23120;DHT22;11729;50.836;4.330;2022-10-26T04:45:45;16.90;99.90
23120;DHT22;11729;50.836;4.330;2022-10-26T04:48:12;17.00;99.90
23120;DHT22;11729;50.836;4.330;2022-10-26T04:50:38;17.00;99.90
23120;DHT22;11729;50.836;4.330;2022-10-26T04:53:05;17.00;99.90
23120;DHT22;11729;50.836;4.330;2022-10-26T04:55:32;17.00;99.90
23120;DHT22;11729;50.836;4.330;2022-10-26T04:57:57;17.10;99.90
23120;DHT22;11729;50.836;4.330;2022-10-26T05:00:23;17.10;99.90
23120;DHT22;11729;50.836;4.330;2022-10-26T05:02:49;17.10;99.90
23120;DHT22;11729;50.836;4.330;2022-10-26T05:05:14;17.10;99.90
23120;DHT22;11729;50.836;4.330;2022-10-26T05:07:40;17.20;99.90
23120;DHT22;11729;50.836;4.330;2022-10-26T05:10:06;17.20;99.90
23120;DHT22;11729;50.836;4.330;2022-10-26T05:12:32;17.20;99.90
23120;DHT22;11729;50.836;4.330;2022-10-26T05:14:58;17.20;99.90
23120;DHT22;11729;50.836;4.330;2022-10-26T05:17:25;17.10;99.90
23120;DHT22;11729;50.836;4.330;2022-10-26T05:19:52;17.10;99.90
23120;DHT22;11729;50.836;4.330;2022-10-26T05:22:22;17.10;99.90
23120;DHT22;11729;50.836;4.330;2022-10-26T05:24:48;17.10;99.90
23120;DHT22;11729;50.836;4.330;2022-10-26T05:27:13;17.00;99.90
23120;DHT22;11729;50.836;4.330;2022-10-26T05:29:39;17.00;99.90
23120;DHT22;11729;50.836;4.330;2022-10-26T05:32:04;16.90;99.90
23120;DHT22;11729;50.836;4.330;2022-10-26T05:34:30;16.80;99.90
23120;DHT22;11729;50.836;4.330;2022-10-26T05:36:55;16.80;99.90
23120;DHT22;11729;50.836;4.330;2022-10-26T05:39:22;16.80;99.90
23120;DHT22;11729;50.836;4.330;2022-10-26T05:41:48;16.70;99.90
23120;DHT22;11729;50.836;4.330;2022-10-26T05:44:13;16.70;99.90
23120;DHT22;11729;50.836;4.330;2022-10-26T05:46:39;16.70;99.90
23120;DHT22;11729;50.836;4.330;2022-10-26T05:49:04;16.70;99.90
23120;DHT22;11729;50.836;4.330;2022-10-26T05:51:32;16.70;99.90
23120;DHT22;11729;50.836;4.330;2022-10-26T05:53:58;16.70;99.90
23120;DHT22;11729;50.836;4.330;2022-10-26T05:56:39;16.70;99.90
23120;DHT22;11729;50.836;4.330;2022-10-26T05:59:13;16.80;99.90
23120;DHT22;11729;50.836;4.330;2022-10-26T06:04:43;16.70;99.90
23120;DHT22;11729;50.836;4.330;2022-10-26T06:07:18;16.70;99.90
23120;DHT22;11729;50.836;4.330;2022-10-26T06:09:46;16.70;99.90
23120;DHT22;11729;50.836;4.330;2022-10-26T06:12:13;16.70;99.90
23120;DHT22;11729;50.836;4.330;2022-10-26T06:14:40;16.70;99.90
23120;DHT22;11729;50.836;4.330;2022-10-26T06:20:07;16.70;99.90
23120;DHT22;11729;50.836;4.330;2022-10-26T06:22:54;16.60;99.90
23120;DHT22;11729;50.836;4.330;2022-10-26T06:31:00;16.80;99.90
23120;DHT22;11729;50.836;4.330;2022-10-26T06:33:25;16.70;99.90
23120;DHT22;11729;50.836;4.330;2022-10-26T06:38:28;16.70;99.90
23120;DHT22;11729;50.836;4.330;2022-10-26T06:40:56;16.70;99.90
23120;DHT22;11729;50.836;4.330;2022-10-26T06:43:30;16.60;99.90
23120;DHT22;11729;50.836;4.330;2022-10-26T06:48:43;16.70;99.90
23120;DHT22;11729;50.836;4.330;2022-10-26T06:51:13;16.80;99.90
23120;DHT22;11729;50.836;4.330;2022-10-26T06:53:58;16.80;99.90
23120;DHT22;11729;50.836;4.330;2022-10-26T06:56:27;16.90;99.90
23120;DHT22;11729;50.836;4.330;2022-10-26T06:58:55;17.00;99.90
23120;DHT22;11729;50.836;4.330;2022-10-26T07:01:24;17.00;99.90
23120;DHT22;11729;50.836;4.330;2022-10-26T07:03:50;16.90;99.90
23120;DHT22;11729;50.836;4.330;2022-10-26T07:06:15;16.90;99.90
23120;DHT22;11729;50.836;4.330;2022-10-26T07:08:41;16.90;99.90
23120;DHT22;11729;50.836;4.330;2022-10-26T07:11:07;17.00;99.90
23120;DHT22;11729;50.836;4.330;2022-10-26T07:13:33;17.10;99.90
23120;DHT22;11729;50.836;4.330;2022-10-26T07:16:00;17.10;99.90
23120;DHT22;11729;50.836;4.330;2022-10-26T07:18:25;17.10;99.90
23120;DHT22;11729;50.836;4.330;2022-10-26T07:20:51;17.10;99.90
23120;DHT22;11729;50.836;4.330;2022-10-26T07:23:17;17.10;99.90
23120;DHT22;11729;50.836;4.330;2022-10-26T07:25:42;17.10;99.90
23120;DHT22;11729;50.836;4.330;2022-10-26T07:28:09;17.10;99.90
23120;DHT22;11729;50.836;4.330;2022-10-26T07:30:36;17.00;99.90
23120;DHT22;11729;50.836;4.330;2022-10-26T07:33:12;17.00;99.90
23120;DHT22;11729;50.836;4.330;2022-10-26T07:35:39;17.10;99.90
23120;DHT22;11729;50.836;4.330;2022-10-26T07:38:05;17.20;99.90
23120;DHT22;11729;50.836;4.330;2022-10-26T07:40:31;17.30;99.90
23120;DHT22;11729;50.836;4.330;2022-10-26T07:42:58;17.30;99.90
23120;DHT22;11729;50.836;4.330;2022-10-26T07:45:25;17.40;99.90
23120;DHT22;11729;50.836;4.330;2022-10-26T07:47:51;17.40;99.90
23120;DHT22;11729;50.836;4.330;2022-10-26T07:50:17;17.40;99.90
23120;DHT22;11729;50.836;4.330;2022-10-26T07:52:42;17.50;99.90
23120;DHT22;11729;50.836;4.330;2022-10-26T07:55:09;18.00;99.90
23120;DHT22;11729;50.836;4.330;2022-10-26T07:57:35;18.60;99.90
23120;DHT22;11729;50.836;4.330;2022-10-26T08:00:02;19.30;99.90
23120;DHT22;11729;50.836;4.330;2022-10-26T08:02:28;19.80;99.90
23120;DHT22;11729;50.836;4.330;2022-10-26T08:04:53;20.10;99.90
23120;DHT22;11729;50.836;4.330;2022-10-26T08:07:20;20.60;99.90
23120;DHT22;11729;50.836;4.330;2022-10-26T08:09:46;21.00;99.90
23120;DHT22;11729;50.836;4.330;2022-10-26T08:12:11;21.20;99.90
23120;DHT22;11729;50.836;4.330;2022-10-26T08:14:41;21.50;99.90
23120;DHT22;11729;50.836;4.330;2022-10-26T08:17:06;21.70;99.90
23120;DHT22;11729;50.836;4.330;2022-10-26T08:19:32;22.00;99.90
23120;DHT22;11729;50.836;4.330;2022-10-26T08:21:58;22.00;99.90
23120;DHT22;11729;50.836;4.330;2022-10-26T08:24:23;22.10;99.90
23120;DHT22;11729;50.836;4.330;2022-10-26T08:26:49;22.00;99.90
23120;DHT22;11729;50.836;4.330;2022-10-26T08:29:14;22.00;99.90
23120;DHT22;11729;50.836;4.330;2022-10-26T08:31:40;21.90;99.90
23120;DHT22;11729;50.836;4.330;2022-10-26T08:34:06;21.50;99.90
23120;DHT22;11729;50.836;4.330;2022-10-26T08:36:32;21.20;99.90
23120;DHT22;11729;50.836;4.330;2022-10-26T08:38:58;21.10;99.90
23120;DHT22;11729;50.836;4.330;2022-10-26T08:41:34;20.90;99.90
23120;DHT22;11729;50.836;4.330;2022-10-26T08:44:23;20.80;99.90
23120;DHT22;11729;50.836;4.330;2022-10-26T08:46:52;20.60;99.90
23120;DHT22;11729;50.836;4.330;2022-10-26T08:49:24;20.50;99.90
23120;DHT22;11729;50.836;4.330;2022-10-26T08:51:54;20.40;99.90
23120;DHT22;11729;50.836;4.330;2022-10-26T08:54:35;20.30;99.90
23120;DHT22;11729;50.836;4.330;2022-10-26T08:57:32;20.30;99.90
23120;DHT22;11729;50.836;4.330;2022-10-26T09:00:06;20.30;99.90
23120;DHT22;11729;50.836;4.330;2022-10-26T09:02:35;20.10;99.90
23120;DHT22;11729;50.836;4.330;2022-10-26T09:05:01;20.00;99.90
23120;DHT22;11729;50.836;4.330;2022-10-26T09:07:35;19.80;99.90
23120;DHT22;11729;50.836;4.330;2022-10-26T09:10:07;19.90;99.90
23120;DHT22;11729;50.836;4.330;2022-10-26T09:24:12;19.90;99.90
23120;DHT22;11729;50.836;4.330;2022-10-26T09:26:50;20.20;99.90
23120;DHT22;11729;50.836;4.330;2022-10-26T09:29:18;20.20;99.90
23120;DHT22;11729;50.836;4.330;2022-10-26T09:31:47;20.10;99.90
23120;DHT22;11729;50.836;4.330;2022-10-26T09:35:04;20.10;99.90
23120;DHT22;11729;50.836;4.330;2022-10-26T09:37:30;20.10;99.90
23120;DHT22;11729;50.836;4.330;2022-10-26T09:40:10;20.10;99.90
23120;DHT22;11729;50.836;4.330;2022-10-26T09:42:53;20.20;99.90
23120;DHT22;11729;50.836;4.330;2022-10-26T09:45:24;20.30;99.90
23120;DHT22;11729;50.836;4.330;2022-10-26T09:47:53;20.30;99.90
23120;DHT22;11729;50.836;4.330;2022-10-26T09:50:35;20.40;99.90
23120;DHT22;11729;50.836;4.330;2022-10-26T09:53:02;20.50;99.90
23120;DHT22;11729;50.836;4.330;2022-10-26T09:55:32;20.50;99.90
23120;DHT22;11729;50.836;4.330;2022-10-26T09:58:03;20.50;99.90
23120;DHT22;11729;50.836;4.330;2022-10-26T10:00:32;20.60;99.90
23120;DHT22;11729;50.836;4.330;2022-10-26T10:02:58;20.50;99.90
23120;DHT22;11729;50.836;4.330;2022-10-26T10:05:28;20.50;99.90
23120;DHT22;11729;50.836;4.330;2022-10-26T10:08:12;20.60;99.90
23120;DHT22;11729;50.836;4.330;2022-10-26T10:10:59;20.60;99.90
23120;DHT22;11729;50.836;4.330;2022-10-26T10:13:31;20.80;99.90
23120;DHT22;11729;50.836;4.330;2022-10-26T10:16:24;21.10;99.90
23120;DHT22;11729;50.836;4.330;2022-10-26T10:18:55;21.20;99.90
23120;DHT22;11729;50.836;4.330;2022-10-26T10:21:34;21.30;99.90
23120;DHT22;11729;50.836;4.330;2022-10-26T10:24:01;21.30;99.90
23120;DHT22;11729;50.836;4.330;2022-10-26T10:26:26;21.40;99.90
23120;DHT22;11729;50.836;4.330;2022-10-26T10:28:58;21.50;99.90
23120;DHT22;11729;50.836;4.330;2022-10-26T10:31:29;21.60;99.90
23120;DHT22;11729;50.836;4.330;2022-10-26T10:33:55;21.80;99.90
23120;DHT22;11729;50.836;4.330;2022-10-26T10:36:23;22.20;99.90
23120;DHT22;11729;50.836;4.330;2022-10-26T10:38:51;22.50;99.90
23120;DHT22;11729;50.836;4.330;2022-10-26T10:41:27;22.90;99.90
23120;DHT22;11729;50.836;4.330;2022-10-26T10:46:38;22.90;99.90
23120;DHT22;11729;50.836;4.330;2022-10-26T10:49:08;22.90;99.90
23120;DHT22;11729;50.836;4.330;2022-10-26T10:51:41;23.00;99.90
23120;DHT22;11729;50.836;4.330;2022-10-26T10:59:26;23.50;99.90
23120;DHT22;11729;50.836;4.330;2022-10-26T11:06:55;24.00;99.90
23120;DHT22;11729;50.836;4.330;2022-10-26T11:09:26;23.90;99.90
23120;DHT22;11729;50.836;4.330;2022-10-26T11:14:41;24.50;99.90
23120;DHT22;11729;50.836;4.330;2022-10-26T11:17:22;24.70;99.90
23120;DHT22;11729;50.836;4.330;2022-10-26T11:19:58;24.70;99.90
23120;DHT22;11729;50.836;4.330;2022-10-26T11:22:36;24.80;99.90
23120;DHT22;11729;50.836;4.330;2022-10-26T11:25:27;24.70;99.90
23120;DHT22;11729;50.836;4.330;2022-10-26T11:28:05;24.70;99.90
23120;DHT22;11729;50.836;4.330;2022-10-26T11:30:36;24.70;99.90
23120;DHT22;11729;50.836;4.330;2022-10-26T11:35:58;25.10;99.90
23120;DHT22;11729;50.836;4.330;2022-10-26T11:38:48;25.40;99.90
23120;DHT22;11729;50.836;4.330;2022-10-26T11:41:20;25.30;99.90
23120;DHT22;11729;50.836;4.330;2022-10-26T11:46:56;25.20;99.90
23120;DHT22;11729;50.836;4.330;2022-10-26T11:49:42;25.50;99.90
23120;DHT22;11729;50.836;4.330;2022-10-26T11:52:17;25.80;99.90
23120;DHT22;11729;50.836;4.330;2022-10-26T11:54:53;26.10;99.90
23120;DHT22;11729;50.836;4.330;2022-10-26T11:57:25;26.10;99.90
23120;DHT22;11729;50.836;4.330;2022-10-26T11:59:56;26.20;99.90
23120;DHT22;11729;50.836;4.330;2022-10-26T12:02:24;26.30;99.90
23120;DHT22;11729;50.836;4.330;2022-10-26T12:05:02;26.10;99.90
23120;DHT22;11729;50.836;4.330;2022-10-26T12:07:37;26.00;99.90
23120;DHT22;11729;50.836;4.330;2022-10-26T12:10:06;25.80;99.90
23120;DHT22;11729;50.836;4.330;2022-10-26T12:18:44;27.10;99.90
23120;DHT22;11729;50.836;4.330;2022-10-26T12:21:12;26.60;99.90
23120;DHT22;11729;50.836;4.330;2022-10-26T12:23:59;26.90;99.90
23120;DHT22;11729;50.836;4.330;2022-10-26T12:33:58;29.00;99.90
23120;DHT22;11729;50.836;4.330;2022-10-26T12:36:46;29.30;99.90
23120;DHT22;11729;50.836;4.330;2022-10-26T12:39:32;28.80;99.90
23120;DHT22;11729;50.836;4.330;2022-10-26T12:50:00;29.40;98.40
23120;DHT22;11729;50.836;4.330;2022-10-26T12:57:59;30.80;96.10
23120;DHT22;11729;50.836;4.330;2022-10-26T13:00:28;30.60;95.90
23120;DHT22;11729;50.836;4.330;2022-10-26T13:09:16;29.20;96.40
23120;DHT22;11729;50.836;4.330;2022-10-26T13:11:50;29.00;97.80
23120;DHT22;11729;50.836;4.330;2022-10-26T13:14:26;29.20;97.80
23120;DHT22;11729;50.836;4.330;2022-10-26T13:16:53;29.40;96.90
23120;DHT22;11729;50.836;4.330;2022-10-26T13:19:43;29.40;96.50
23120;DHT22;11729;50.836;4.330;2022-10-26T13:22:19;28.80;96.90
23120;DHT22;11729;50.836;4.330;2022-10-26T13:24:51;28.10;97.90
23120;DHT22;11729;50.836;4.330;2022-10-26T13:30:15;27.80;99.10
23120;DHT22;11729;50.836;4.330;2022-10-26T13:32:51;27.50;99.90
23120;DHT22;11729;50.836;4.330;2022-10-26T13:35:19;27.30;99.90
23120;DHT22;11729;50.836;4.330;2022-10-26T13:37:47;27.00;99.90
23120;DHT22;11729;50.836;4.330;2022-10-26T13:40:20;26.70;99.90
23120;DHT22;11729;50.836;4.330;2022-10-26T13:42:57;26.40;99.90
23120;DHT22;11729;50.836;4.330;2022-10-26T13:45:32;26.30;99.90
23120;DHT22;11729;50.836;4.330;2022-10-26T13:48:13;26.20;99.90
23120;DHT22;11729;50.836;4.330;2022-10-26T13:50:48;26.30;99.90
23120;DHT22;11729;50.836;4.330;2022-10-26T13:53:20;26.10;99.90
23120;DHT22;11729;50.836;4.330;2022-10-26T13:55:53;25.70;99.90
23120;DHT22;11729;50.836;4.330;2022-10-26T13:58:32;25.40;99.90
23120;DHT22;11729;50.836;4.330;2022-10-26T14:03:28;24.50;99.90
23120;DHT22;11729;50.836;4.330;2022-10-26T14:05:54;24.30;99.90
23120;DHT22;11729;50.836;4.330;2022-10-26T14:08:21;23.90;99.90
23120;DHT22;11729;50.836;4.330;2022-10-26T14:10:55;23.70;99.90
23120;DHT22;11729;50.836;4.330;2022-10-26T14:13:24;23.30;99.90
23120;DHT22;11729;50.836;4.330;2022-10-26T14:15:51;23.10;99.90
23120;DHT22;11729;50.836;4.330;2022-10-26T14:18:24;23.10;99.90
23120;DHT22;11729;50.836;4.330;2022-10-26T14:20:59;23.00;99.90
23120;DHT22;11729;50.836;4.330;2022-10-26T14:23:34;23.00;99.90
23120;DHT22;11729;50.836;4.330;2022-10-26T14:26:00;22.80;99.90
23120;DHT22;11729;50.836;4.330;2022-10-26T14:28:28;22.70;99.90
23120;DHT22;11729;50.836;4.330;2022-10-26T14:30:54;22.70;99.90
23120;DHT22;11729;50.836;4.330;2022-10-26T14:33:34;22.60;99.90
23120;DHT22;11729;50.836;4.330;2022-10-26T14:36:00;22.60;99.90
23120;DHT22;11729;50.836;4.330;2022-10-26T14:38:27;22.30;99.90
23120;DHT22;11729;50.836;4.330;2022-10-26T14:40:56;22.20;99.90
23120;DHT22;11729;50.836;4.330;2022-10-26T14:43:23;22.40;99.90
23120;DHT22;11729;50.836;4.330;2022-10-26T14:45:51;22.60;99.90
23120;DHT22;11729;50.836;4.330;2022-10-26T14:48:27;22.80;99.90
23120;DHT22;11729;50.836;4.330;2022-10-26T14:51:05;22.70;99.90
23120;DHT22;11729;50.836;4.330;2022-10-26T14:53:36;22.80;99.90
23120;DHT22;11729;50.836;4.330;2022-10-26T14:56:03;22.70;99.90
23120;DHT22;11729;50.836;4.330;2022-10-26T14:58:30;22.40;99.90
23120;DHT22;11729;50.836;4.330;2022-10-26T15:03:42;22.40;99.90
23120;DHT22;11729;50.836;4.330;2022-10-26T15:08:56;22.20;99.90
23120;DHT22;11729;50.836;4.330;2022-10-26T15:11:23;22.10;99.90
23120;DHT22;11729;50.836;4.330;2022-10-26T15:13:52;22.20;99.90
23120;DHT22;11729;50.836;4.330;2022-10-26T15:16:25;22.00;99.90
23120;DHT22;11729;50.836;4.330;2022-10-26T15:18:55;22.00;99.90
23120;DHT22;11729;50.836;4.330;2022-10-26T15:21:23;22.00;99.90
23120;DHT22;11729;50.836;4.330;2022-10-26T15:23:50;21.80;99.90
23120;DHT22;11729;50.836;4.330;2022-10-26T15:26:16;21.70;99.90
23120;DHT22;11729;50.836;4.330;2022-10-26T15:28:42;21.70;99.90
23120;DHT22;11729;50.836;4.330;2022-10-26T15:33:38;21.60;99.90
23120;DHT22;11729;50.836;4.330;2022-10-26T15:36:13;21.60;99.90
23120;DHT22;11729;50.836;4.330;2022-10-26T15:38:40;21.60;99.90
23120;DHT22;11729;50.836;4.330;2022-10-26T15:43:37;21.50;99.90
23120;DHT22;11729;50.836;4.330;2022-10-26T15:46:03;21.50;99.90
23120;DHT22;11729;50.836;4.330;2022-10-26T15:48:31;21.50;99.90
23120;DHT22;11729;50.836;4.330;2022-10-26T15:50:58;21.50;99.90
23120;DHT22;11729;50.836;4.330;2022-10-26T15:53:25;21.40;99.90
23120;DHT22;11729;50.836;4.330;2022-10-26T15:55:56;21.30;99.90
23120;DHT22;11729;50.836;4.330;2022-10-26T15:58:23;21.40;99.90
23120;DHT22;11729;50.836;4.330;2022-10-26T16:00:49;21.30;99.90
23120;DHT22;11729;50.836;4.330;2022-10-26T16:03:22;21.30;99.90
23120;DHT22;11729;50.836;4.330;2022-10-26T16:05:54;21.20;99.90
23120;DHT22;11729;50.836;4.330;2022-10-26T16:08:20;21.10;99.90
23120;DHT22;11729;50.836;4.330;2022-10-26T16:10:46;21.10;99.90
23120;DHT22;11729;50.836;4.330;2022-10-26T16:13:13;21.00;99.90
23120;DHT22;11729;50.836;4.330;2022-10-26T16:15:39;21.00;99.90
23120;DHT22;11729;50.836;4.330;2022-10-26T16:18:05;21.00;99.90
23120;DHT22;11729;50.836;4.330;2022-10-26T16:20:30;20.90;99.90
23120;DHT22;11729;50.836;4.330;2022-10-26T16:22:56;20.90;99.90
23120;DHT22;11729;50.836;4.330;2022-10-26T16:25:25;20.90;99.90
23120;DHT22;11729;50.836;4.330;2022-10-26T16:27:53;20.80;99.90
23120;DHT22;11729;50.836;4.330;2022-10-26T16:30:19;20.70;99.90
23120;DHT22;11729;50.836;4.330;2022-10-26T16:32:45;20.60;99.90
23120;DHT22;11729;50.836;4.330;2022-10-26T16:35:11;20.50;99.90
23120;DHT22;11729;50.836;4.330;2022-10-26T16:37:37;20.50;99.90
23120;DHT22;11729;50.836;4.330;2022-10-26T16:40:03;20.40;99.90
23120;DHT22;11729;50.836;4.330;2022-10-26T16:42:30;20.40;99.90
23120;DHT22;11729;50.836;4.330;2022-10-26T16:44:56;20.40;99.90
23120;DHT22;11729;50.836;4.330;2022-10-26T16:47:22;20.40;99.90
23120;DHT22;11729;50.836;4.330;2022-10-26T16:49:48;20.50;99.90
23120;DHT22;11729;50.836;4.330;2022-10-26T16:52:13;20.50;99.90
23120;DHT22;11729;50.836;4.330;2022-10-26T16:54:39;20.40;99.90
23120;DHT22;11729;50.836;4.330;2022-10-26T16:57:05;20.40;99.90
23120;DHT22;11729;50.836;4.330;2022-10-26T16:59:31;20.40;99.90
23120;DHT22;11729;50.836;4.330;2022-10-26T17:01:56;20.40;99.90
23120;DHT22;11729;50.836;4.330;2022-10-26T17:04:22;20.30;99.90
23120;DHT22;11729;50.836;4.330;2022-10-26T17:06:48;20.20;99.90
23120;DHT22;11729;50.836;4.330;2022-10-26T17:09:13;20.20;99.90
23120;DHT22;11729;50.836;4.330;2022-10-26T17:11:39;20.10;99.90
23120;DHT22;11729;50.836;4.330;2022-10-26T17:14:05;20.10;99.90
23120;DHT22;11729;50.836;4.330;2022-10-26T17:16:31;20.00;99.90
23120;DHT22;11729;50.836;4.330;2022-10-26T17:18:56;19.90;99.90
23120;DHT22;11729;50.836;4.330;2022-10-26T17:21:31;20.00;99.90
23120;DHT22;11729;50.836;4.330;2022-10-26T17:23:58;20.00;99.90
23120;DHT22;11729;50.836;4.330;2022-10-26T17:26:24;19.90;99.90
23120;DHT22;11729;50.836;4.330;2022-10-26T17:28:54;19.90;99.90
23120;DHT22;11729;50.836;4.330;2022-10-26T17:31:21;19.90;99.90
23120;DHT22;11729;50.836;4.330;2022-10-26T17:33:48;19.80;99.90
23120;DHT22;11729;50.836;4.330;2022-10-26T17:36:20;19.80;99.90
23120;DHT22;11729;50.836;4.330;2022-10-26T17:38:48;19.80;99.90
23120;DHT22;11729;50.836;4.330;2022-10-26T17:41:16;19.80;99.90
23120;DHT22;11729;50.836;4.330;2022-10-26T17:43:43;19.80;99.90
23120;DHT22;11729;50.836;4.330;2022-10-26T17:46:20;19.80;99.90
23120;DHT22;11729;50.836;4.330;2022-10-26T17:48:51;19.80;99.90
23120;DHT22;11729;50.836;4.330;2022-10-26T17:51:18;19.80;99.90
23120;DHT22;11729;50.836;4.330;2022-10-26T17:53:50;19.80;99.90